Time;durP1;ratioP1;P1;durP2;ratioP2;P2;SDS_P1;SDS_P2;PMS_P1;PMS_P2;Temp;Humidity;BMP_temperature;BMP_pressure;BME280_temperature;BME280_humidity;BME280_pressure;Samples;Min_cycle;Max_cycle;Signal;HPM_P1;HPM_P2
2022/11/01 00:00:56;;;;;;;13.83;11.30;;;14.70;99.90;;;;;;10533807;28;20268;-84
2022/11/01 00:06:00;;;;;;;13.53;12.10;;;14.70;99.90;;;;;;10536949;28;20196;-82
2022/11/01 00:11:03;;;;;;;15.03;11.80;;;14.70;99.90;;;;;;10531632;28;20211;-84
2022/11/01 00:16:06;;;;;;;13.33;11.83;;;14.70;99.90;;;;;;10527770;28;20590;-83
2022/11/01 00:21:10;;;;;;;10.97;9.97;;;14.70;99.90;;;;;;10529954;28;20623;-83
2022/11/01 00:26:16;;;;;;;12.33;11.03;;;14.70;99.90;;;;;;10521671;28;20559;-82
2022/11/01 00:31:19;;;;;;;16.20;14.00;;;14.60;99.90;;;;;;10532771;28;20193;-83
2022/11/01 00:36:23;;;;;;;18.30;13.57;;;14.70;99.90;;;;;;10515629;28;20676;-84
2022/11/01 00:41:26;;;;;;;12.77;10.83;;;14.70;99.90;;;;;;10511713;28;20664;-83
2022/11/01 00:46:29;;;;;;;12.93;11.60;;;14.70;99.90;;;;;;10521058;28;20211;-83
2022/11/01 00:51:32;;;;;;;12.13;10.77;;;14.70;99.90;;;;;;10523205;28;20237;-83
2022/11/01 00:56:34;;;;;;;12.80;11.50;;;14.70;99.90;;;;;;10523583;28;20215;-83
2022/11/01 01:01:36;;;;;;;12.67;11.20;;;14.70;99.90;;;;;;10507857;28;20188;-84
2022/11/01 01:06:40;;;;;;;15.10;10.37;;;14.80;99.90;;;;;;10511909;28;20745;-83
2022/11/01 01:11:42;;;;;;;14.87;13.30;;;14.80;99.90;;;;;;10511050;28;20233;-85
2022/11/01 01:16:44;;;;;;;13.60;10.50;;;14.80;99.90;;;;;;10528914;28;20724;-83
2022/11/01 01:21:47;;;;;;;14.03;11.60;;;14.80;99.90;;;;;;10546394;28;20192;-84
2022/11/01 01:26:49;;;;;;;12.07;10.40;;;14.80;99.90;;;;;;10528608;28;20258;-84
2022/11/01 01:31:52;;;;;;;11.47;10.43;;;14.70;99.90;;;;;;10513372;28;20622;-84
2022/11/01 01:36:55;;;;;;;11.10;10.00;;;14.70;99.90;;;;;;10549720;28;20222;-83
2022/11/01 01:41:57;;;;;;;13.37;11.20;;;14.70;99.90;;;;;;10531068;28;20201;-83
2022/11/01 01:46:59;;;;;;;11.37;10.27;;;14.70;99.90;;;;;;10523878;28;20212;-82
2022/11/01 01:52:03;;;;;;;13.67;11.27;;;14.60;99.90;;;;;;10506735;28;20211;-83
2022/11/01 01:57:06;;;;;;;13.13;9.60;;;14.60;99.90;;;;;;10505560;28;20718;-84
2022/11/01 02:02:08;;;;;;;14.90;11.50;;;14.60;99.90;;;;;;10504673;28;20197;-81
2022/11/01 02:07:12;;;;;;;14.30;10.80;;;14.60;99.90;;;;;;10505299;28;20310;-82
2022/11/01 02:12:14;;;;;;;10.60;9.60;;;14.70;99.90;;;;;;10524674;28;20283;-82
2022/11/01 02:17:26;;;;;;;13.10;9.60;;;14.70;99.90;;;;;;10522386;28;20228;-83
2022/11/01 02:22:46;;;;;;;11.60;10.60;;;14.80;99.90;;;;;;10527255;28;20675;-83
2022/11/01 02:28:08;;;;;;;13.30;11.73;;;14.80;99.90;;;;;;10527726;28;20257;-84
2022/11/01 02:33:18;;;;;;;17.00;11.07;;;14.80;99.90;;;;;;10521771;28;20228;-84
2022/11/01 02:38:26;;;;;;;10.93;9.73;;;14.90;99.90;;;;;;10515127;28;20212;-84
2022/11/01 02:43:33;;;;;;;13.53;9.80;;;14.90;99.90;;;;;;10531281;28;20200;-83
2022/11/01 02:48:36;;;;;;;13.00;9.37;;;15.00;99.90;;;;;;10520465;28;20212;-83
2022/11/01 02:53:38;;;;;;;14.27;9.80;;;15.00;99.90;;;;;;10535147;28;20283;-84
2022/11/01 02:58:41;;;;;;;12.33;8.77;;;15.00;99.90;;;;;;10530742;28;20284;-84
2022/11/01 03:03:49;;;;;;;11.13;8.90;;;15.10;99.90;;;;;;10537266;28;20222;-83
2022/11/01 03:08:54;;;;;;;15.43;10.33;;;15.10;99.90;;;;;;10506274;28;20244;-83
2022/11/01 03:14:04;;;;;;;13.70;9.67;;;15.00;99.90;;;;;;10506474;28;20222;-84
2022/11/01 03:19:19;;;;;;;10.10;9.10;;;15.10;99.90;;;;;;10534515;28;20218;-83
2022/11/01 03:24:26;;;;;;;10.70;8.97;;;15.10;99.90;;;;;;10503706;28;20710;-84
2022/11/01 03:29:30;;;;;;;13.67;9.27;;;15.10;99.90;;;;;;10534774;28;20220;-83
2022/11/01 03:34:36;;;;;;;10.40;8.70;;;15.20;99.90;;;;;;10525855;28;20303;-84
2022/11/01 03:39:43;;;;;;;10.60;9.50;;;15.20;99.90;;;;;;10523484;28;20227;-83
2022/11/01 03:44:49;;;;;;;10.97;8.77;;;15.30;99.90;;;;;;10542950;28;20188;-84
2022/11/01 03:50:15;;;;;;;10.90;8.10;;;15.40;99.90;;;;;;10523159;28;20221;-82
2022/11/01 03:55:19;;;;;;;10.87;8.03;;;15.40;99.90;;;;;;10537046;28;20210;-83
2022/11/01 04:00:23;;;;;;;8.50;7.60;;;15.50;99.90;;;;;;10515554;28;20700;-82
2022/11/01 04:05:28;;;;;;;11.97;7.90;;;15.50;99.90;;;;;;10533679;28;20663;-82
2022/11/01 04:10:30;;;;;;;9.97;7.30;;;15.60;99.90;;;;;;10497082;28;20252;-84
2022/11/01 04:20:53;;;;;;;13.70;7.23;;;15.70;99.90;;;;;;10482158;28;20317;-82
2022/11/01 04:25:55;;;;;;;8.77;6.87;;;15.80;99.90;;;;;;10519581;28;20187;-82
2022/11/01 04:30:57;;;;;;;11.10;6.47;;;15.80;99.90;;;;;;10513269;28;20197;-83
2022/11/01 04:36:06;;;;;;;9.57;5.67;;;15.90;99.90;;;;;;10501916;28;20536;-84
2022/11/01 04:41:08;;;;;;;9.40;6.03;;;15.90;99.90;;;;;;10535277;28;20234;-84
2022/11/01 04:46:10;;;;;;;5.67;5.17;;;16.00;99.90;;;;;;10495035;28;20280;-83
2022/11/01 04:51:13;;;;;;;7.33;5.70;;;16.10;99.90;;;;;;10534724;28;20196;-82
2022/11/01 04:56:16;;;;;;;9.00;5.27;;;16.20;99.90;;;;;;10514125;28;20295;-82
2022/11/01 05:01:18;;;;;;;6.03;4.97;;;16.30;99.90;;;;;;10533476;28;20215;-84
2022/11/01 05:06:22;;;;;;;7.30;4.77;;;16.40;99.90;;;;;;10514066;28;20219;-82
2022/11/01 05:11:24;;;;;;;8.33;5.17;;;16.50;99.90;;;;;;10532418;28;20230;-84
2022/11/01 05:16:26;;;;;;;10.53;4.70;;;16.60;99.90;;;;;;10514826;28;20483;-82
2022/11/01 05:21:30;;;;;;;5.70;4.73;;;16.70;99.90;;;;;;10533095;28;20283;-82
2022/11/01 05:26:32;;;;;;;7.00;5.20;;;16.70;99.90;;;;;;10513701;28;20676;-82
2022/11/01 05:31:34;;;;;;;5.20;4.57;;;16.70;99.90;;;;;;10530929;28;20648;-83
2022/11/01 05:36:37;;;;;;;8.87;4.57;;;16.80;99.90;;;;;;10536398;28;20332;-83
2022/11/01 05:41:39;;;;;;;5.03;3.90;;;16.80;99.90;;;;;;10514622;28;20763;-83
2022/11/01 05:46:41;;;;;;;4.20;3.90;;;16.80;99.90;;;;;;10499657;28;20715;-83
2022/11/01 05:51:45;;;;;;;3.77;3.57;;;16.80;99.90;;;;;;10529002;28;20227;-83
2022/11/01 05:56:47;;;;;;;3.80;3.50;;;16.80;99.90;;;;;;10499888;28;20220;-84
2022/11/01 06:01:49;;;;;;;4.37;3.97;;;16.70;99.90;;;;;;10534477;28;20204;-84
2022/11/01 06:06:53;;;;;;;4.40;4.20;;;16.70;99.90;;;;;;10524580;28;20228;-84
2022/11/01 06:11:55;;;;;;;4.50;4.13;;;16.60;99.90;;;;;;10508164;28;20694;-84
2022/11/01 06:16:57;;;;;;;7.43;4.30;;;16.50;99.90;;;;;;10532534;28;20298;-83
2022/11/01 06:22:00;;;;;;;4.10;3.80;;;16.50;99.90;;;;;;10523816;28;20197;-84
2022/11/01 06:27:02;;;;;;;4.87;4.13;;;16.50;99.90;;;;;;10533140;28;20222;-84
2022/11/01 06:32:05;;;;;;;5.53;4.43;;;16.50;99.90;;;;;;10508976;28;20672;-84
2022/11/01 06:37:08;;;;;;;4.30;3.90;;;16.40;99.90;;;;;;10490059;28;20244;-82
2022/11/01 06:42:10;;;;;;;3.93;3.73;;;16.40;99.90;;;;;;10513285;28;20200;-84
2022/11/01 06:47:13;;;;;;;6.97;4.10;;;16.40;99.90;;;;;;10526729;28;20230;-84
2022/11/01 06:52:18;;;;;;;4.77;3.80;;;16.40;99.90;;;;;;10528046;28;20286;-84
2022/11/01 06:57:20;;;;;;;3.73;3.53;;;16.40;99.90;;;;;;10509038;28;20246;-83
2022/11/01 07:02:24;;;;;;;3.57;3.37;;;16.40;99.90;;;;;;10533819;28;20682;-84
2022/11/01 07:07:28;;;;;;;3.17;3.07;;;16.40;99.90;;;;;;10530064;22;20233;-82
2022/11/01 07:12:30;;;;;;;3.50;3.30;;;16.40;99.90;;;;;;10499354;28;20203;-83
2022/11/01 07:17:32;;;;;;;3.10;3.00;;;16.50;99.90;;;;;;10492802;28;20637;-80
2022/11/01 07:22:35;;;;;;;4.53;3.97;;;16.50;99.90;;;;;;10488093;28;20214;-80
2022/11/01 07:27:37;;;;;;;7.70;6.70;;;16.60;99.90;;;;;;10474793;28;20542;-79
2022/11/01 07:32:39;;;;;;;12.50;8.13;;;16.60;99.90;;;;;;10476384;28;20256;-80
2022/11/01 07:37:42;;;;;;;6.60;6.00;;;16.70;99.90;;;;;;10487825;28;20255;-81
2022/11/01 07:42:45;;;;;;;6.40;5.80;;;16.70;99.90;;;;;;10475926;28;20201;-80
2022/11/01 07:47:47;;;;;;;5.40;4.90;;;16.70;99.90;;;;;;10474583;28;20556;-80
2022/11/01 07:52:59;;;;;;;4.50;4.27;;;16.80;99.90;;;;;;10460210;28;20288;-79
2022/11/01 07:58:01;;;;;;;4.90;4.50;;;16.90;99.90;;;;;;10482746;28;20243;-80
2022/11/01 08:03:05;;;;;;;4.30;3.90;;;16.90;99.90;;;;;;10482807;28;20304;-80
2022/11/01 08:08:09;;;;;;;4.17;3.87;;;17.00;99.90;;;;;;10480419;28;20282;-80
2022/11/01 08:13:15;;;;;;;3.80;3.50;;;17.00;99.90;;;;;;10501833;28;20747;-80
2022/11/01 08:18:18;;;;;;;3.40;3.30;;;17.10;99.90;;;;;;10483841;28;20327;-81
2022/11/01 08:23:21;;;;;;;3.03;2.83;;;17.10;99.90;;;;;;10468607;28;20200;-81
2022/11/01 08:28:23;;;;;;;3.40;3.20;;;17.20;99.90;;;;;;10489486;28;20310;-81
2022/11/01 08:33:25;;;;;;;3.20;3.10;;;17.30;99.90;;;;;;10488994;28;20223;-81
2022/11/01 08:38:29;;;;;;;3.00;2.90;;;17.30;99.90;;;;;;10489362;28;20410;-82
2022/11/01 08:43:31;;;;;;;2.90;2.80;;;17.40;99.90;;;;;;10486404;28;20193;-80
2022/11/01 08:48:33;;;;;;;3.03;2.80;;;17.40;99.90;;;;;;10478057;28;20217;-80
2022/11/01 08:53:36;;;;;;;3.50;3.37;;;17.50;99.90;;;;;;10484852;28;20194;-79
2022/11/01 08:58:38;;;;;;;3.00;2.80;;;17.50;99.90;;;;;;10480034;28;20248;-80
2022/11/01 09:03:40;;;;;;;3.20;3.10;;;17.60;99.90;;;;;;10481769;28;20205;-81
2022/11/01 09:08:44;;;;;;;3.13;3.00;;;17.60;99.90;;;;;;10475762;28;20224;-81
2022/11/01 09:13:46;;;;;;;3.33;3.23;;;17.60;99.90;;;;;;10458731;28;20193;-79
2022/11/01 09:18:48;;;;;;;3.53;3.33;;;17.70;99.90;;;;;;10456988;28;20224;-79
2022/11/01 09:23:51;;;;;;;2.60;2.50;;;17.70;99.90;;;;;;10484337;28;20197;-80
2022/11/01 09:28:57;;;;;;;3.10;3.00;;;17.70;99.90;;;;;;10494671;28;20238;-81
2022/11/01 09:34:00;;;;;;;2.80;2.60;;;17.80;99.90;;;;;;10487992;28;20276;-80
2022/11/01 09:39:03;;;;;;;3.20;3.00;;;17.90;99.90;;;;;;10468872;28;20221;-81
2022/11/01 09:44:08;;;;;;;2.60;2.50;;;17.90;99.90;;;;;;10447673;28;20277;-83
2022/11/01 09:49:13;;;;;;;3.00;2.80;;;18.00;99.90;;;;;;10437239;28;20304;-82
2022/11/01 09:54:21;;;;;;;2.80;2.70;;;18.10;99.90;;;;;;10478555;28;20197;-83
2022/11/01 09:59:29;;;;;;;3.00;2.83;;;18.20;99.90;;;;;;10464993;28;20251;-83
2022/11/01 10:05:04;;;;;;;3.00;2.90;;;18.30;99.90;;;;;;10491314;28;20657;-83
2022/11/01 10:10:26;;;;;;;3.20;2.93;;;18.30;99.90;;;;;;10481989;28;20607;-82
2022/11/01 10:15:39;;;;;;;2.53;2.43;;;18.30;99.90;;;;;;10493151;28;20189;-83
2022/11/01 10:20:42;;;;;;;2.60;2.50;;;18.40;99.90;;;;;;10490306;28;20704;-83
2022/11/01 10:25:51;;;;;;;3.23;3.03;;;18.50;99.90;;;;;;10485231;28;20190;-83
2022/11/01 10:30:57;;;;;;;2.80;2.70;;;18.60;99.90;;;;;;10502369;28;20220;-83
2022/11/01 10:36:02;;;;;;;2.87;2.60;;;18.70;99.90;;;;;;10498779;28;20234;-83
2022/11/01 10:41:21;;;;;;;8.20;7.50;;;18.80;99.90;;;;;;10485114;28;20227;-83
2022/11/01 10:46:28;;;;;;;4.07;3.77;;;18.90;99.90;;;;;;10493456;28;20199;-83
2022/11/01 10:51:33;;;;;;;2.60;2.50;;;19.00;99.90;;;;;;10482527;28;20197;-83
2022/11/01 10:56:42;;;;;;;2.90;2.70;;;19.00;99.90;;;;;;10483219;28;20272;-84
2022/11/01 11:01:45;;;;;;;2.40;2.20;;;19.10;99.90;;;;;;10486736;28;20557;-82
2022/11/01 11:06:48;;;;;;;3.07;2.87;;;19.00;99.90;;;;;;10483968;28;20220;-82
2022/11/01 11:11:53;;;;;;;4.03;2.53;;;19.00;99.90;;;;;;10469993;28;20196;-82
2022/11/01 11:16:57;;;;;;;3.63;3.20;;;19.00;99.90;;;;;;10496376;28;20248;-84
2022/11/01 11:22:01;;;;;;;3.53;3.33;;;18.90;99.90;;;;;;10469643;28;20201;-82
2022/11/01 11:27:12;;;;;;;3.50;3.30;;;18.90;99.90;;;;;;10482125;28;20217;-84
2022/11/01 11:32:17;;;;;;;3.67;2.93;;;19.00;99.90;;;;;;10470676;28;20229;-84
2022/11/01 11:37:22;;;;;;;3.37;3.10;;;19.00;99.90;;;;;;10454918;28;20217;-84
2022/11/01 11:42:26;;;;;;;4.77;3.83;;;19.00;99.90;;;;;;10479468;28;20275;-84
2022/11/01 11:47:35;;;;;;;3.70;3.47;;;19.00;99.90;;;;;;10473271;28;20308;-84
2022/11/01 11:52:38;;;;;;;3.40;3.10;;;19.00;99.90;;;;;;10466382;28;20337;-84
2022/11/01 11:57:51;;;;;;;4.73;4.43;;;19.00;99.90;;;;;;10474597;28;20226;-84
2022/11/01 12:02:53;;;;;;;3.63;3.33;;;19.00;99.90;;;;;;10480112;28;20234;-83
2022/11/01 12:07:57;;;;;;;4.03;3.73;;;19.10;99.90;;;;;;10473194;28;20227;-84
2022/11/01 12:13:01;;;;;;;3.80;3.60;;;19.10;99.90;;;;;;10479951;28;20672;-84
2022/11/01 12:18:14;;;;;;;3.27;3.07;;;19.10;99.90;;;;;;10469905;28;20245;-84
2022/11/01 12:23:26;;;;;;;4.30;4.00;;;19.10;99.90;;;;;;10481564;28;20212;-84
2022/11/01 12:28:35;;;;;;;4.00;3.70;;;19.10;99.90;;;;;;10450459;28;20228;-83
2022/11/01 12:33:44;;;;;;;3.53;3.33;;;19.00;99.90;;;;;;10481793;28;20196;-84
2022/11/01 12:38:49;;;;;;;5.07;3.97;;;19.00;99.90;;;;;;10486439;28;20228;-84
2022/11/01 12:44:08;;;;;;;5.20;4.20;;;18.90;99.90;;;;;;10471201;28;20190;-83
2022/11/01 12:49:16;;;;;;;4.60;4.20;;;18.80;99.90;;;;;;10461008;28;20232;-82
2022/11/01 12:54:25;;;;;;;3.60;3.30;;;18.80;99.90;;;;;;10450944;28;20285;-84
2022/11/01 12:59:36;;;;;;;4.77;3.87;;;18.70;99.90;;;;;;10440142;28;20260;-82
2022/11/01 13:04:44;;;;;;;6.23;4.20;;;18.70;99.90;;;;;;10443290;28;20273;-83
2022/11/01 13:09:56;;;;;;;5.73;3.77;;;18.70;99.90;;;;;;10451766;28;20240;-82
2022/11/01 13:15:14;;;;;;;4.60;3.67;;;18.60;99.90;;;;;;10491464;22;20251;-81
2022/11/01 13:20:29;;;;;;;3.90;3.60;;;18.60;99.90;;;;;;10422413;28;20693;-85
2022/11/01 13:25:39;;;;;;;6.03;3.90;;;18.50;99.90;;;;;;10458033;28;20602;-84
2022/11/01 13:30:52;;;;;;;4.60;3.57;;;18.40;99.90;;;;;;10462034;28;20194;-85
2022/11/01 13:36:03;;;;;;;3.83;3.30;;;18.30;99.90;;;;;;10432543;28;20201;-84
2022/11/01 13:41:18;;;;;;;4.13;3.93;;;18.20;99.90;;;;;;10478140;28;20291;-84
2022/11/01 13:46:54;;;;;;;4.50;4.10;;;18.10;99.90;;;;;;10459916;28;20190;-84
2022/11/01 13:52:00;;;;;;;4.57;3.80;;;18.10;99.90;;;;;;10455529;28;20217;-84
2022/11/01 13:57:11;;;;;;;5.90;3.67;;;18.00;99.90;;;;;;10443967;28;20228;-85
2022/11/01 14:02:34;;;;;;;4.13;3.83;;;17.90;99.90;;;;;;10458145;28;20214;-81
2022/11/01 14:07:38;;;;;;;4.43;4.03;;;17.80;99.90;;;;;;10423600;28;20239;-82
2022/11/01 14:12:43;;;;;;;5.63;5.10;;;17.70;99.90;;;;;;10431133;28;20438;-85
2022/11/01 14:18:04;;;;;;;4.80;3.73;;;17.70;99.90;;;;;;10428171;28;20213;-85
2022/11/01 14:23:51;;;;;;;5.80;4.33;;;17.60;99.90;;;;;;10459557;28;20262;-83
2022/11/01 14:28:55;;;;;;;7.77;4.10;;;17.50;99.90;;;;;;10446248;28;20232;-83
2022/11/01 14:34:01;;;;;;;3.50;3.30;;;17.50;99.90;;;;;;10434680;28;20217;-81
2022/11/01 14:39:09;;;;;;;5.97;5.10;;;17.40;99.90;;;;;;10422605;28;20681;-82
2022/11/01 14:44:19;;;;;;;4.77;4.37;;;17.40;99.90;;;;;;10429273;28;20639;-82
2022/11/01 14:49:32;;;;;;;5.03;4.63;;;17.30;99.90;;;;;;10443660;28;20588;-86
2022/11/01 14:54:42;;;;;;;10.17;4.23;;;17.30;99.90;;;;;;10422800;28;20212;-84
2022/11/01 14:59:47;;;;;;;7.57;5.60;;;17.30;99.90;;;;;;10425811;28;20217;-85
2022/11/01 15:04:51;;;;;;;5.00;4.57;;;17.20;99.90;;;;;;10438369;28;20213;-83
2022/11/01 15:09:58;;;;;;;4.23;3.93;;;17.20;99.90;;;;;;10447805;28;20193;-85
2022/11/01 15:15:01;;;;;;;6.10;4.43;;;17.20;99.90;;;;;;10458607;28;20226;-83
2022/11/01 15:20:13;;;;;;;6.93;4.30;;;17.20;99.90;;;;;;10436522;28;20217;-86
2022/11/01 15:25:25;;;;;;;9.63;4.27;;;17.10;99.90;;;;;;10439137;28;20287;-84
2022/11/01 15:30:29;;;;;;;4.83;4.43;;;17.10;99.90;;;;;;10432639;28;20189;-84
2022/11/01 15:35:32;;;;;;;5.40;5.10;;;17.10;99.90;;;;;;10435096;28;20276;-84
2022/11/01 15:40:35;;;;;;;6.43;5.83;;;17.10;99.90;;;;;;10435124;28;20582;-83
2022/11/01 15:45:38;;;;;;;5.10;4.60;;;17.10;99.90;;;;;;10436546;28;20202;-84
2022/11/01 15:50:47;;;;;;;5.17;4.70;;;17.10;99.90;;;;;;10446575;28;20252;-84
2022/11/01 15:55:54;;;;;;;7.50;4.70;;;17.10;99.90;;;;;;10417814;28;20202;-84
2022/11/01 16:00:59;;;;;;;5.40;4.90;;;17.00;99.90;;;;;;10438409;28;20244;-82
2022/11/01 16:06:08;;;;;;;5.90;5.27;;;17.00;99.90;;;;;;10437678;28;20213;-82
2022/11/01 16:11:15;;;;;;;4.90;4.50;;;16.90;99.90;;;;;;10433088;28;20229;-82
2022/11/01 16:16:18;;;;;;;8.40;4.90;;;16.70;99.90;;;;;;10446019;28;20193;-85
2022/11/01 16:21:31;;;;;;;7.40;5.30;;;16.60;99.90;;;;;;10446286;28;20593;-84
2022/11/01 16:26:33;;;;;;;5.20;4.70;;;16.50;99.90;;;;;;10446328;28;20250;-85
2022/11/01 16:31:36;;;;;;;4.97;4.40;;;16.30;99.90;;;;;;10428981;28;20225;-85
2022/11/01 16:36:41;;;;;;;7.43;5.30;;;16.20;99.90;;;;;;10459236;28;20197;-85
2022/11/01 16:41:43;;;;;;;8.50;5.70;;;16.10;99.90;;;;;;10439966;28;20283;-83
2022/11/01 16:46:45;;;;;;;5.70;5.20;;;16.00;99.90;;;;;;10423331;28;20684;-82
2022/11/01 16:51:49;;;;;;;5.53;4.20;;;15.90;99.90;;;;;;10458815;28;20279;-83
2022/11/01 16:56:53;;;;;;;4.80;4.30;;;15.80;99.90;;;;;;10445376;28;20838;-85
2022/11/01 17:01:57;;;;;;;5.03;4.53;;;15.80;99.90;;;;;;10443524;28;20264;-84
2022/11/01 17:07:01;;;;;;;5.03;4.43;;;15.70;99.90;;;;;;10436873;28;20193;-86
2022/11/01 17:12:04;;;;;;;8.53;5.30;;;15.60;99.90;;;;;;10449988;28;20252;-82
2022/11/01 17:17:14;;;;;;;6.90;5.60;;;15.60;99.90;;;;;;10432691;28;20214;-80
2022/11/01 17:22:20;;;;;;;8.20;6.50;;;15.60;99.90;;;;;;10432841;28;20267;-82
2022/11/01 17:27:22;;;;;;;11.30;9.70;;;15.50;99.90;;;;;;10432282;28;20210;-83
2022/11/01 17:32:24;;;;;;;9.73;6.87;;;15.40;99.90;;;;;;10444691;28;20313;-84
2022/11/01 17:37:31;;;;;;;11.47;9.30;;;15.40;99.90;;;;;;10444125;28;20221;-84
2022/11/01 17:42:33;;;;;;;10.47;8.33;;;15.30;99.90;;;;;;10469519;28;20367;-83
2022/11/01 17:47:35;;;;;;;11.40;9.70;;;15.20;99.90;;;;;;10434472;28;20619;-84
2022/11/01 17:52:38;;;;;;;10.33;7.73;;;15.20;99.90;;;;;;10455128;28;20301;-83
2022/11/01 17:57:42;;;;;;;11.60;6.77;;;15.20;99.90;;;;;;10456072;28;20599;-82
2022/11/01 18:02:44;;;;;;;7.10;5.80;;;15.20;99.90;;;;;;10451666;28;20222;-83
2022/11/01 18:07:49;;;;;;;6.57;5.90;;;15.10;99.90;;;;;;10472191;28;20265;-81
2022/11/01 18:13:12;;;;;;;6.47;5.83;;;15.10;99.90;;;;;;10460175;28;20229;-81
2022/11/01 18:18:41;;;;;;;6.83;5.77;;;15.10;99.90;;;;;;10437811;28;20246;-81
2022/11/01 18:23:45;;;;;;;6.37;5.87;;;15.00;99.90;;;;;;10443099;28;20229;-84
2022/11/01 18:28:47;;;;;;;7.30;5.90;;;14.90;99.90;;;;;;10439738;28;20221;-83
2022/11/01 18:33:54;;;;;;;16.47;8.67;;;14.90;99.90;;;;;;10444693;28;20276;-83
2022/11/01 18:39:06;;;;;;;37.80;17.20;;;14.80;99.90;;;;;;10439976;28;20285;-83
2022/11/01 18:44:12;;;;;;;15.10;9.30;;;14.70;99.90;;;;;;10429505;28;20225;-83
2022/11/01 18:49:14;;;;;;;17.43;12.03;;;14.70;99.90;;;;;;10419703;28;20907;-83
2022/11/01 18:54:26;;;;;;;42.60;28.33;;;14.60;99.90;;;;;;10428463;28;20233;-84
2022/11/01 18:59:31;;;;;;;62.93;41.03;;;14.50;99.90;;;;;;10439437;28;20217;-84
2022/11/01 19:04:36;;;;;;;30.20;22.73;;;14.50;99.90;;;;;;10449248;28;20274;-81
2022/11/01 19:09:42;;;;;;;12.07;7.63;;;14.40;99.90;;;;;;10423510;28;20734;-83
2022/11/01 19:14:48;;;;;;;11.50;10.13;;;14.40;99.90;;;;;;10425892;28;20279;-83
2022/11/01 19:19:51;;;;;;;16.90;12.00;;;14.30;99.90;;;;;;10439490;28;20216;-83
2022/11/01 19:24:54;;;;;;;11.27;9.97;;;14.20;99.90;;;;;;10448134;28;20221;-83
2022/11/01 19:29:58;;;;;;;15.03;10.87;;;14.10;99.90;;;;;;10431129;28;20221;-83
2022/11/01 19:35:00;;;;;;;11.70;9.10;;;14.10;99.90;;;;;;10437629;28;20232;-83
2022/11/01 19:40:12;;;;;;;11.53;8.13;;;14.10;99.90;;;;;;10439290;28;20220;-83
2022/11/01 19:45:31;;;;;;;7.67;6.63;;;14.10;99.90;;;;;;10454511;28;20259;-82
2022/11/01 19:50:39;;;;;;;7.70;6.00;;;14.00;99.90;;;;;;10445396;28;20204;-82
2022/11/01 19:55:48;;;;;;;6.07;5.30;;;14.00;99.90;;;;;;10465103;28;20689;-83
2022/11/01 20:00:56;;;;;;;4.90;4.60;;;14.00;99.90;;;;;;10459003;28;20692;-82
2022/11/01 20:05:58;;;;;;;7.03;4.37;;;14.00;99.90;;;;;;10467628;28;20615;-83
2022/11/01 20:11:01;;;;;;;5.30;4.53;;;14.10;99.90;;;;;;10466612;28;20244;-83
2022/11/01 20:16:03;;;;;;;5.90;3.53;;;14.10;99.90;;;;;;10463408;28;20670;-82
2022/11/01 20:21:05;;;;;;;4.40;3.50;;;14.10;99.90;;;;;;10465955;28;20290;-82
2022/11/01 20:26:11;;;;;;;5.00;4.10;;;14.10;99.90;;;;;;10461710;28;20201;-81
2022/11/01 20:31:13;;;;;;;8.20;4.40;;;14.10;99.90;;;;;;10462737;28;20692;-83
2022/11/01 20:36:15;;;;;;;4.90;3.43;;;14.10;99.90;;;;;;10459132;28;20250;-83
2022/11/01 20:41:19;;;;;;;7.07;4.73;;;14.00;99.90;;;;;;10445489;28;20282;-83
2022/11/01 20:46:21;;;;;;;4.33;3.93;;;14.00;99.90;;;;;;10444679;28;20203;-82
2022/11/01 20:51:23;;;;;;;4.83;3.40;;;13.90;99.90;;;;;;10439638;28;20274;-82
2022/11/01 20:56:26;;;;;;;5.17;4.67;;;13.90;99.90;;;;;;10464844;28;20213;-82
2022/11/01 21:01:28;;;;;;;6.60;4.07;;;13.80;99.90;;;;;;10448585;28;20221;-80
2022/11/01 21:06:32;;;;;;;4.20;3.90;;;13.80;99.90;;;;;;10446901;28;20207;-81
2022/11/01 21:11:43;;;;;;;4.80;3.80;;;13.70;99.90;;;;;;10451152;28;20251;-82
2022/11/01 21:16:46;;;;;;;6.30;4.70;;;13.60;99.90;;;;;;10456901;28;20264;-82
2022/11/01 21:21:52;;;;;;;6.20;3.90;;;13.60;99.90;;;;;;10471627;28;20233;-82
2022/11/01 21:27:10;;;;;;;6.87;4.30;;;13.50;99.90;;;;;;10467281;28;20652;-81
2022/11/01 21:32:28;;;;;;;5.60;3.70;;;13.30;99.90;;;;;;10462508;28;20213;-82
2022/11/01 21:37:30;;;;;;;7.63;4.80;;;13.30;99.90;;;;;;10435425;28;20193;-82
2022/11/01 21:42:35;;;;;;;6.13;4.20;;;13.20;99.90;;;;;;10461232;28;20225;-82
2022/11/01 21:47:38;;;;;;;3.83;3.57;;;13.10;99.90;;;;;;10445042;28;20197;-82
2022/11/01 21:52:40;;;;;;;5.97;4.40;;;13.10;99.90;;;;;;10444281;28;20221;-80
2022/11/01 21:57:43;;;;;;;4.93;4.10;;;13.00;99.90;;;;;;10447020;28;20554;-81
2022/11/01 22:02:45;;;;;;;4.33;4.03;;;13.10;99.90;;;;;;10442740;28;20221;-82
2022/11/01 22:07:47;;;;;;;5.13;4.60;;;13.10;99.90;;;;;;10443386;28;20236;-81
2022/11/01 22:12:51;;;;;;;5.27;4.50;;;13.10;99.90;;;;;;10419468;28;20225;-81
2022/11/01 22:17:53;;;;;;;8.00;4.40;;;13.10;99.90;;;;;;10449443;28;22140;-82
2022/11/01 22:22:55;;;;;;;5.00;4.57;;;13.10;99.90;;;;;;10460147;28;20291;-82
2022/11/01 22:27:58;;;;;;;6.93;4.17;;;13.10;99.90;;;;;;10431784;28;20190;-81
2022/11/01 22:33:00;;;;;;;5.17;4.33;;;13.10;99.90;;;;;;10451229;28;20218;-82
2022/11/01 22:38:15;;;;;;;5.00;3.80;;;13.10;99.90;;;;;;10435320;28;20782;-81
2022/11/01 22:43:19;;;;;;;7.57;4.80;;;13.00;99.90;;;;;;10438612;28;20214;-82
2022/11/01 22:48:23;;;;;;;8.57;4.37;;;13.00;99.90;;;;;;10456464;28;20264;-82
2022/11/01 22:53:26;;;;;;;4.23;3.53;;;12.90;99.90;;;;;;10459061;28;20233;-82
2022/11/01 22:58:35;;;;;;;7.83;4.27;;;12.90;99.90;;;;;;10428998;28;20748;-81
2022/11/01 23:03:39;;;;;;;6.50;4.53;;;12.90;99.90;;;;;;10439219;28;20598;-82
2022/11/01 23:08:41;;;;;;;4.00;3.70;;;12.80;99.90;;;;;;10434559;28;20194;-82
2022/11/01 23:19:09;;;;;;;4.73;3.97;;;12.80;99.90;;;;;;10461356;28;20213;-80
2022/11/01 23:24:11;;;;;;;5.50;4.20;;;12.70;99.90;;;;;;10437568;28;20213;-81
2022/11/01 23:29:14;;;;;;;18.13;10.13;;;12.60;99.90;;;;;;10437444;28;20190;-82
2022/11/01 23:34:16;;;;;;;13.20;8.10;;;12.60;99.90;;;;;;10436175;28;20217;-82
2022/11/01 23:39:18;;;;;;;31.90;17.83;;;12.70;99.90;;;;;;10439078;28;20263;-82
2022/11/01 23:44:26;;;;;;;25.70;14.80;;;12.70;99.90;;;;;;10439462;28;20241;-81
2022/11/01 23:49:30;;;;;;;18.30;10.20;;;12.80;99.90;;;;;;10453819;28;20196;-82
2022/11/01 23:54:38;;;;;;;8.50;6.23;;;12.80;99.90;;;;;;10447000;28;20236;-82
2022/11/01 23:59:42;;;;;;;14.10;8.43;;;12.80;99.90;;;;;;10437345;28;20229;-82
